sensor_id;sensor_type;location;lat;lon;timestamp;pressure;altitude;pressure_sealevel;temperature;humidity
163;BME280;3946;48.958;8.284;2023-09-19T00:00:38;100064.47;;;17.05;100.00
163;BME280;3946;48.958;8.284;2023-09-19T00:03:26;100064.19;;;17.08;100.00
163;BME280;3946;48.958;8.284;2023-09-19T00:06:12;100060.81;;;16.98;100.00
163;BME280;3946;48.958;8.284;2023-09-19T00:08:59;100055.88;;;16.95;100.00
163;BME280;3946;48.958;8.284;2023-09-19T00:11:44;100058.13;;;17.07;100.00
163;BME280;3946;48.958;8.284;2023-09-19T00:14:31;100060.25;;;17.04;100.00
163;BME280;3946;48.958;8.284;2023-09-19T00:17:18;100044.84;;;16.91;100.00
163;BME280;3946;48.958;8.284;2023-09-19T00:20:05;100068.56;;;16.90;100.00
163;BME280;3946;48.958;8.284;2023-09-19T00:22:55;100063.31;;;16.90;100.00
163;BME280;3946;48.958;8.284;2023-09-19T00:25:43;100074.25;;;16.85;100.00
163;BME280;3946;48.958;8.284;2023-09-19T00:28:29;100069.84;;;16.86;100.00
163;BME280;3946;48.958;8.284;2023-09-19T00:31:15;100066.97;;;16.79;100.00
163;BME280;3946;48.958;8.284;2023-09-19T00:34:00;100076.56;;;16.88;100.00
163;BME280;3946;48.958;8.284;2023-09-19T00:36:50;100067.44;;;16.92;100.00
163;BME280;3946;48.958;8.284;2023-09-19T00:39:37;100063.31;;;16.90;100.00
163;BME280;3946;48.958;8.284;2023-09-19T00:42:22;100072.75;;;16.83;100.00
163;BME280;3946;48.958;8.284;2023-09-19T00:45:07;100066.63;;;16.92;100.00
163;BME280;3946;48.958;8.284;2023-09-19T00:47:53;100063.84;;;16.93;100.00
163;BME280;3946;48.958;8.284;2023-09-19T00:50:39;100081.75;;;16.98;100.00
163;BME280;3946;48.958;8.284;2023-09-19T00:53:27;100079.00;;;16.99;100.00
163;BME280;3946;48.958;8.284;2023-09-19T00:56:13;100080.03;;;17.06;100.00
163;BME280;3946;48.958;8.284;2023-09-19T00:58:58;100085.00;;;17.09;100.00
163;BME280;3946;48.958;8.284;2023-09-19T01:01:45;100082.22;;;17.11;100.00
163;BME280;3946;48.958;8.284;2023-09-19T01:04:37;100081.84;;;17.06;100.00
163;BME280;3946;48.958;8.284;2023-09-19T01:07:21;100084.41;;;17.16;100.00
163;BME280;3946;48.958;8.284;2023-09-19T01:10:10;100078.50;;;17.13;100.00
163;BME280;3946;48.958;8.284;2023-09-19T01:13:05;100085.25;;;17.16;100.00
163;BME280;3946;48.958;8.284;2023-09-19T01:15:54;100093.47;;;17.21;100.00
163;BME280;3946;48.958;8.284;2023-09-19T01:18:43;100096.41;;;17.18;100.00
163;BME280;3946;48.958;8.284;2023-09-19T01:21:34;100106.19;;;17.16;100.00
163;BME280;3946;48.958;8.284;2023-09-19T01:24:33;100110.81;;;17.22;100.00
163;BME280;3946;48.958;8.284;2023-09-19T01:27:30;100112.03;;;17.28;100.00
163;BME280;3946;48.958;8.284;2023-09-19T01:30:20;100103.28;;;17.19;100.00
163;BME280;3946;48.958;8.284;2023-09-19T01:33:07;100109.38;;;17.10;100.00
163;BME280;3946;48.958;8.284;2023-09-19T01:35:54;100112.69;;;17.12;100.00
163;BME280;3946;48.958;8.284;2023-09-19T01:38:42;100125.56;;;16.96;100.00
163;BME280;3946;48.958;8.284;2023-09-19T01:41:30;100124.75;;;16.95;100.00
163;BME280;3946;48.958;8.284;2023-09-19T01:44:23;100115.63;;;16.99;100.00
163;BME280;3946;48.958;8.284;2023-09-19T01:47:13;100122.66;;;16.99;100.00
163;BME280;3946;48.958;8.284;2023-09-19T01:50:04;100120.34;;;16.96;100.00
163;BME280;3946;48.958;8.284;2023-09-19T01:52:59;100124.84;;;17.03;100.00
163;BME280;3946;48.958;8.284;2023-09-19T01:55:48;100131.28;;;17.09;100.00
163;BME280;3946;48.958;8.284;2023-09-19T01:58:36;100132.09;;;17.19;100.00
163;BME280;3946;48.958;8.284;2023-09-19T02:01:22;100135.69;;;17.18;100.00
163;BME280;3946;48.958;8.284;2023-09-19T02:04:10;100131.63;;;17.24;100.00
163;BME280;3946;48.958;8.284;2023-09-19T02:06:55;100134.31;;;17.14;100.00
163;BME280;3946;48.958;8.284;2023-09-19T02:09:42;100125.72;;;17.22;100.00
163;BME280;3946;48.958;8.284;2023-09-19T02:12:31;100137.69;;;17.24;100.00
163;BME280;3946;48.958;8.284;2023-09-19T02:15:20;100135.00;;;17.16;100.00
163;BME280;3946;48.958;8.284;2023-09-19T02:18:05;100139.28;;;17.07;100.00
163;BME280;3946;48.958;8.284;2023-09-19T02:20:54;100147.94;;;17.18;100.00
163;BME280;3946;48.958;8.284;2023-09-19T02:23:39;100147.44;;;17.04;100.00
163;BME280;3946;48.958;8.284;2023-09-19T02:26:24;100153.88;;;17.20;100.00
163;BME280;3946;48.958;8.284;2023-09-19T02:29:11;100150.59;;;17.08;100.00
163;BME280;3946;48.958;8.284;2023-09-19T02:31:56;100152.22;;;17.09;100.00
163;BME280;3946;48.958;8.284;2023-09-19T02:34:41;100152.84;;;17.03;100.00
163;BME280;3946;48.958;8.284;2023-09-19T02:37:30;100159.41;;;17.07;100.00
163;BME280;3946;48.958;8.284;2023-09-19T02:40:15;100164.34;;;17.20;100.00
163;BME280;3946;48.958;8.284;2023-09-19T02:43:03;100162.84;;;17.07;100.00
163;BME280;3946;48.958;8.284;2023-09-19T02:45:48;100166.19;;;17.00;100.00
163;BME280;3946;48.958;8.284;2023-09-19T02:48:34;100167.94;;;17.09;100.00
163;BME280;3946;48.958;8.284;2023-09-19T02:51:20;100167.13;;;17.08;100.00
163;BME280;3946;48.958;8.284;2023-09-19T02:54:06;100178.88;;;17.04;100.00
163;BME280;3946;48.958;8.284;2023-09-19T02:56:52;100176.38;;;17.03;100.00
163;BME280;3946;48.958;8.284;2023-09-19T02:59:38;100180.25;;;16.99;100.00
163;BME280;3946;48.958;8.284;2023-09-19T03:02:25;100183.56;;;17.01;100.00
163;BME280;3946;48.958;8.284;2023-09-19T03:05:11;100190.44;;;17.02;100.00
163;BME280;3946;48.958;8.284;2023-09-19T03:07:57;100186.75;;;16.95;100.00
163;BME280;3946;48.958;8.284;2023-09-19T03:10:47;100189.78;;;16.90;100.00
163;BME280;3946;48.958;8.284;2023-09-19T03:13:32;100191.00;;;16.96;100.00
163;BME280;3946;48.958;8.284;2023-09-19T03:16:18;100190.72;;;16.89;100.00
163;BME280;3946;48.958;8.284;2023-09-19T03:19:05;100194.75;;;16.84;100.00
163;BME280;3946;48.958;8.284;2023-09-19T03:21:51;100199.03;;;16.85;100.00
163;BME280;3946;48.958;8.284;2023-09-19T03:24:37;100196.97;;;16.78;100.00
163;BME280;3946;48.958;8.284;2023-09-19T03:27:24;100194.63;;;16.85;100.00
163;BME280;3946;48.958;8.284;2023-09-19T03:30:11;100197.38;;;16.84;100.00
163;BME280;3946;48.958;8.284;2023-09-19T03:32:58;100204.41;;;16.73;100.00
163;BME280;3946;48.958;8.284;2023-09-19T03:35:43;100201.50;;;16.76;100.00
163;BME280;3946;48.958;8.284;2023-09-19T03:38:36;100202.91;;;16.71;100.00
163;BME280;3946;48.958;8.284;2023-09-19T03:41:21;100203.59;;;16.73;100.00
163;BME280;3946;48.958;8.284;2023-09-19T03:44:08;100208.69;;;16.74;100.00
163;BME280;3946;48.958;8.284;2023-09-19T03:46:53;100211.16;;;16.76;100.00
163;BME280;3946;48.958;8.284;2023-09-19T03:49:40;100210.50;;;16.64;100.00
163;BME280;3946;48.958;8.284;2023-09-19T03:52:25;100221.19;;;16.61;100.00
163;BME280;3946;48.958;8.284;2023-09-19T03:55:10;100227.66;;;16.57;100.00
163;BME280;3946;48.958;8.284;2023-09-19T03:57:56;100229.06;;;16.61;100.00
163;BME280;3946;48.958;8.284;2023-09-19T04:00:43;100226.47;;;16.71;100.00
163;BME280;3946;48.958;8.284;2023-09-19T04:03:28;100226.59;;;16.69;100.00
163;BME280;3946;48.958;8.284;2023-09-19T04:06:19;100231.69;;;16.71;100.00
163;BME280;3946;48.958;8.284;2023-09-19T04:09:04;100228.91;;;16.72;100.00
163;BME280;3946;48.958;8.284;2023-09-19T04:11:50;100240.22;;;16.73;100.00
163;BME280;3946;48.958;8.284;2023-09-19T04:14:36;100243.53;;;16.65;100.00
163;BME280;3946;48.958;8.284;2023-09-19T04:17:24;100249.34;;;16.69;100.00
163;BME280;3946;48.958;8.284;2023-09-19T04:20:10;100252.91;;;16.68;100.00
163;BME280;3946;48.958;8.284;2023-09-19T04:22:56;100257.03;;;16.70;100.00
163;BME280;3946;48.958;8.284;2023-09-19T04:25:41;100265.69;;;16.81;100.00
163;BME280;3946;48.958;8.284;2023-09-19T04:28:26;100261.16;;;16.73;100.00
163;BME280;3946;48.958;8.284;2023-09-19T04:31:11;100274.53;;;16.70;100.00
163;BME280;3946;48.958;8.284;2023-09-19T04:33:59;100281.00;;;16.66;100.00
163;BME280;3946;48.958;8.284;2023-09-19T04:36:47;100274.81;;;16.67;100.00
163;BME280;3946;48.958;8.284;2023-09-19T04:39:31;100270.53;;;16.66;100.00
163;BME280;3946;48.958;8.284;2023-09-19T04:42:17;100273.66;;;16.60;100.00
163;BME280;3946;48.958;8.284;2023-09-19T04:45:02;100265.69;;;16.52;100.00
163;BME280;3946;48.958;8.284;2023-09-19T04:47:48;100270.91;;;16.61;100.00
163;BME280;3946;48.958;8.284;2023-09-19T04:50:34;100267.31;;;16.62;100.00
163;BME280;3946;48.958;8.284;2023-09-19T04:53:20;100255.34;;;16.60;100.00
163;BME280;3946;48.958;8.284;2023-09-19T04:56:05;100265.69;;;16.61;100.00
163;BME280;3946;48.958;8.284;2023-09-19T04:58:51;100270.81;;;16.63;100.00
163;BME280;3946;48.958;8.284;2023-09-19T05:01:36;100267.72;;;16.58;100.00
163;BME280;3946;48.958;8.284;2023-09-19T05:04:21;100276.03;;;16.63;100.00
163;BME280;3946;48.958;8.284;2023-09-19T05:07:08;100280.53;;;16.61;100.00
163;BME280;3946;48.958;8.284;2023-09-19T05:09:55;100285.38;;;16.56;100.00
163;BME280;3946;48.958;8.284;2023-09-19T05:12:40;100294.31;;;16.43;100.00
163;BME280;3946;48.958;8.284;2023-09-19T05:15:25;100295.56;;;16.39;100.00
163;BME280;3946;48.958;8.284;2023-09-19T05:18:10;100302.97;;;16.44;100.00
163;BME280;3946;48.958;8.284;2023-09-19T05:20:55;100309.72;;;16.47;100.00
163;BME280;3946;48.958;8.284;2023-09-19T05:23:42;100318.97;;;16.51;100.00
163;BME280;3946;48.958;8.284;2023-09-19T05:26:27;100321.03;;;16.47;100.00
163;BME280;3946;48.958;8.284;2023-09-19T05:29:12;100321.97;;;16.46;100.00
163;BME280;3946;48.958;8.284;2023-09-19T05:31:57;100327.34;;;16.35;100.00
163;BME280;3946;48.958;8.284;2023-09-19T05:34:42;100336.84;;;16.36;100.00
163;BME280;3946;48.958;8.284;2023-09-19T05:37:27;100334.94;;;16.38;100.00
163;BME280;3946;48.958;8.284;2023-09-19T05:40:14;100340.81;;;16.40;100.00
163;BME280;3946;48.958;8.284;2023-09-19T05:43:00;100334.22;;;16.45;100.00
163;BME280;3946;48.958;8.284;2023-09-19T05:45:47;100343.72;;;16.37;100.00
163;BME280;3946;48.958;8.284;2023-09-19T05:48:32;100344.13;;;16.42;100.00
163;BME280;3946;48.958;8.284;2023-09-19T05:51:17;100350.06;;;16.44;100.00
163;BME280;3946;48.958;8.284;2023-09-19T05:54:03;100339.31;;;16.47;100.00
163;BME280;3946;48.958;8.284;2023-09-19T05:56:50;100344.81;;;16.44;100.00
163;BME280;3946;48.958;8.284;2023-09-19T05:59:37;100345.78;;;16.43;100.00
163;BME280;3946;48.958;8.284;2023-09-19T06:02:22;100352.41;;;16.47;100.00
163;BME280;3946;48.958;8.284;2023-09-19T06:05:10;100349.50;;;16.40;100.00
163;BME280;3946;48.958;8.284;2023-09-19T06:07:55;100357.06;;;16.34;100.00
163;BME280;3946;48.958;8.284;2023-09-19T06:10:43;100348.00;;;16.38;100.00
163;BME280;3946;48.958;8.284;2023-09-19T06:13:31;100357.38;;;16.50;100.00
163;BME280;3946;48.958;8.284;2023-09-19T06:16:17;100351.44;;;16.38;100.00
163;BME280;3946;48.958;8.284;2023-09-19T06:19:03;100357.06;;;16.43;100.00
163;BME280;3946;48.958;8.284;2023-09-19T06:21:50;100355.28;;;16.44;100.00
163;BME280;3946;48.958;8.284;2023-09-19T06:24:35;100352.66;;;16.44;100.00
163;BME280;3946;48.958;8.284;2023-09-19T06:27:20;100359.28;;;16.48;100.00
163;BME280;3946;48.958;8.284;2023-09-19T06:30:07;100356.50;;;16.30;100.00
163;BME280;3946;48.958;8.284;2023-09-19T06:32:56;100349.91;;;16.36;100.00
163;BME280;3946;48.958;8.284;2023-09-19T06:35:42;100358.59;;;16.46;100.00
163;BME280;3946;48.958;8.284;2023-09-19T06:38:28;100356.03;;;16.65;100.00
163;BME280;3946;48.958;8.284;2023-09-19T06:41:13;100351.50;;;16.67;100.00
163;BME280;3946;48.958;8.284;2023-09-19T06:43:59;100354.00;;;16.69;100.00
163;BME280;3946;48.958;8.284;2023-09-19T06:46:46;100351.66;;;16.85;100.00
163;BME280;3946;48.958;8.284;2023-09-19T06:49:33;100358.94;;;16.91;100.00
163;BME280;3946;48.958;8.284;2023-09-19T06:52:19;100362.13;;;17.04;100.00
163;BME280;3946;48.958;8.284;2023-09-19T06:55:05;100358.09;;;17.20;100.00
163;BME280;3946;48.958;8.284;2023-09-19T06:57:51;100353.13;;;17.36;100.00
163;BME280;3946;48.958;8.284;2023-09-19T07:00:38;100359.03;;;17.28;100.00
163;BME280;3946;48.958;8.284;2023-09-19T07:03:24;100366.03;;;17.37;100.00
163;BME280;3946;48.958;8.284;2023-09-19T07:06:10;100360.81;;;17.37;100.00
163;BME280;3946;48.958;8.284;2023-09-19T07:08:55;100363.84;;;17.52;100.00
163;BME280;3946;48.958;8.284;2023-09-19T07:11:40;100360.50;;;17.60;100.00
163;BME280;3946;48.958;8.284;2023-09-19T07:14:26;100364.13;;;17.86;100.00
163;BME280;3946;48.958;8.284;2023-09-19T07:17:11;100360.72;;;18.13;100.00
163;BME280;3946;48.958;8.284;2023-09-19T07:20:00;100367.06;;;18.38;100.00
163;BME280;3946;48.958;8.284;2023-09-19T07:22:51;100370.00;;;18.52;100.00
163;BME280;3946;48.958;8.284;2023-09-19T07:25:38;100375.44;;;18.69;100.00
163;BME280;3946;48.958;8.284;2023-09-19T07:28:23;100372.25;;;18.93;97.59
163;BME280;3946;48.958;8.284;2023-09-19T07:31:08;100377.50;;;18.75;98.73
163;BME280;3946;48.958;8.284;2023-09-19T07:33:54;100379.31;;;18.47;100.00
163;BME280;3946;48.958;8.284;2023-09-19T07:36:40;100381.47;;;18.79;98.91
163;BME280;3946;48.958;8.284;2023-09-19T07:39:26;100394.22;;;18.74;97.26
163;BME280;3946;48.958;8.284;2023-09-19T07:42:11;100391.50;;;18.83;96.48
163;BME280;3946;48.958;8.284;2023-09-19T07:45:01;100396.41;;;18.78;96.61
163;BME280;3946;48.958;8.284;2023-09-19T07:47:47;100398.72;;;18.81;96.54
163;BME280;3946;48.958;8.284;2023-09-19T07:50:33;100399.00;;;18.61;94.59
163;BME280;3946;48.958;8.284;2023-09-19T07:53:21;100410.38;;;18.97;94.87
163;BME280;3946;48.958;8.284;2023-09-19T07:56:07;100421.44;;;18.91;95.06
163;BME280;3946;48.958;8.284;2023-09-19T07:58:53;100403.34;;;19.23;91.83
163;BME280;3946;48.958;8.284;2023-09-19T08:01:38;100413.53;;;19.44;91.09
163;BME280;3946;48.958;8.284;2023-09-19T08:04:25;100401.00;;;19.55;89.76
163;BME280;3946;48.958;8.284;2023-09-19T08:07:10;100403.19;;;19.60;88.70
163;BME280;3946;48.958;8.284;2023-09-19T08:09:56;100409.28;;;19.95;86.98
163;BME280;3946;48.958;8.284;2023-09-19T08:12:43;100408.72;;;20.09;86.47
163;BME280;3946;48.958;8.284;2023-09-19T08:15:30;100412.34;;;20.16;86.52
163;BME280;3946;48.958;8.284;2023-09-19T08:18:15;100408.56;;;20.52;85.40
163;BME280;3946;48.958;8.284;2023-09-19T08:21:00;100406.75;;;20.53;85.70
163;BME280;3946;48.958;8.284;2023-09-19T08:23:45;100406.75;;;20.53;84.30
163;BME280;3946;48.958;8.284;2023-09-19T08:26:32;100405.91;;;20.44;82.26
163;BME280;3946;48.958;8.284;2023-09-19T08:29:17;100407.88;;;20.50;82.59
163;BME280;3946;48.958;8.284;2023-09-19T08:32:02;100399.00;;;20.43;82.12
163;BME280;3946;48.958;8.284;2023-09-19T08:34:47;100403.13;;;20.62;80.37
163;BME280;3946;48.958;8.284;2023-09-19T08:37:32;100412.38;;;20.66;80.26
163;BME280;3946;48.958;8.284;2023-09-19T08:40:19;100403.38;;;20.35;78.98
163;BME280;3946;48.958;8.284;2023-09-19T08:43:06;100398.03;;;20.18;77.27
163;BME280;3946;48.958;8.284;2023-09-19T08:45:52;100392.25;;;20.41;74.44
163;BME280;3946;48.958;8.284;2023-09-19T08:48:39;100395.34;;;20.36;74.98
163;BME280;3946;48.958;8.284;2023-09-19T08:51:26;100394.13;;;20.73;73.64
163;BME280;3946;48.958;8.284;2023-09-19T08:54:12;100382.25;;;20.69;70.53
163;BME280;3946;48.958;8.284;2023-09-19T08:57:04;100390.66;;;20.72;71.70
163;BME280;3946;48.958;8.284;2023-09-19T08:59:53;100396.31;;;21.18;71.59
163;BME280;3946;48.958;8.284;2023-09-19T09:02:39;100369.97;;;20.93;69.30
163;BME280;3946;48.958;8.284;2023-09-19T09:05:25;100370.78;;;21.02;68.63
163;BME280;3946;48.958;8.284;2023-09-19T09:08:10;100382.31;;;21.09;69.93
163;BME280;3946;48.958;8.284;2023-09-19T09:10:55;100379.03;;;21.07;68.39
163;BME280;3946;48.958;8.284;2023-09-19T09:13:41;100370.28;;;21.15;68.02
163;BME280;3946;48.958;8.284;2023-09-19T09:16:27;100366.50;;;21.34;67.39
163;BME280;3946;48.958;8.284;2023-09-19T09:19:14;100372.59;;;21.10;68.84
163;BME280;3946;48.958;8.284;2023-09-19T09:22:08;100364.69;;;21.34;66.58
163;BME280;3946;48.958;8.284;2023-09-19T09:24:53;100368.00;;;21.36;66.77
163;BME280;3946;48.958;8.284;2023-09-19T09:27:41;100430.53;;;21.91;75.01
163;BME280;3946;48.958;8.284;2023-09-19T09:30:33;100360.75;;;22.02;65.90
163;BME280;3946;48.958;8.284;2023-09-19T09:33:19;100353.22;;;21.82;64.75
163;BME280;3946;48.958;8.284;2023-09-19T09:36:04;100368.91;;;21.59;66.14
163;BME280;3946;48.958;8.284;2023-09-19T09:38:50;100363.84;;;21.58;66.57
163;BME280;3946;48.958;8.284;2023-09-19T09:41:38;100370.53;;;21.85;66.90
163;BME280;3946;48.958;8.284;2023-09-19T09:44:24;100358.69;;;21.64;65.69
163;BME280;3946;48.958;8.284;2023-09-19T09:47:11;100376.88;;;21.27;65.50
163;BME280;3946;48.958;8.284;2023-09-19T09:50:15;100358.03;;;21.62;64.87
163;BME280;3946;48.958;8.284;2023-09-19T09:53:22;100367.88;;;21.85;65.52
163;BME280;3946;48.958;8.284;2023-09-19T09:56:09;100367.84;;;21.93;64.29
163;BME280;3946;48.958;8.284;2023-09-19T09:58:56;100364.00;;;21.56;64.17
163;BME280;3946;48.958;8.284;2023-09-19T10:01:46;100370.91;;;21.65;63.53
163;BME280;3946;48.958;8.284;2023-09-19T10:04:32;100372.13;;;22.02;64.61
163;BME280;3946;48.958;8.284;2023-09-19T10:07:25;100367.88;;;22.32;63.71
163;BME280;3946;48.958;8.284;2023-09-19T10:10:15;100355.06;;;22.52;62.38
163;BME280;3946;48.958;8.284;2023-09-19T10:13:21;100359.53;;;22.43;62.36
163;BME280;3946;48.958;8.284;2023-09-19T10:16:07;100352.22;;;22.76;62.73
163;BME280;3946;48.958;8.284;2023-09-19T10:18:54;100350.13;;;22.49;61.19
163;BME280;3946;48.958;8.284;2023-09-19T10:21:42;100344.78;;;22.26;60.98
163;BME280;3946;48.958;8.284;2023-09-19T10:24:30;100359.06;;;22.09;61.21
163;BME280;3946;48.958;8.284;2023-09-19T10:27:18;100369.34;;;22.34;62.52
163;BME280;3946;48.958;8.284;2023-09-19T10:30:06;100353.63;;;22.41;60.88
163;BME280;3946;48.958;8.284;2023-09-19T10:32:57;100357.84;;;22.73;61.60
163;BME280;3946;48.958;8.284;2023-09-19T10:35:44;100337.44;;;22.90;60.04
163;BME280;3946;48.958;8.284;2023-09-19T10:38:29;100343.81;;;23.03;60.24
163;BME280;3946;48.958;8.284;2023-09-19T10:41:18;100338.06;;;22.77;60.41
163;BME280;3946;48.958;8.284;2023-09-19T10:44:06;100337.63;;;22.65;60.61
163;BME280;3946;48.958;8.284;2023-09-19T10:46:53;100340.00;;;22.75;60.18
163;BME280;3946;48.958;8.284;2023-09-19T10:49:42;100345.41;;;22.59;59.88
163;BME280;3946;48.958;8.284;2023-09-19T10:52:30;100341.47;;;22.32;59.89
163;BME280;3946;48.958;8.284;2023-09-19T10:55:18;100354.59;;;22.17;61.04
163;BME280;3946;48.958;8.284;2023-09-19T10:58:07;100360.38;;;22.44;61.74
163;BME280;3946;48.958;8.284;2023-09-19T11:00:59;100357.81;;;22.58;61.53
163;BME280;3946;48.958;8.284;2023-09-19T11:06:59;100339.38;;;22.73;60.40
163;BME280;3946;48.958;8.284;2023-09-19T11:09:47;100349.59;;;22.53;60.82
163;BME280;3946;48.958;8.284;2023-09-19T11:12:49;100334.63;;;22.91;59.67
163;BME280;3946;48.958;8.284;2023-09-19T11:18:53;100336.06;;;23.02;59.89
163;BME280;3946;48.958;8.284;2023-09-19T11:21:52;100323.91;;;23.08;59.06
163;BME280;3946;48.958;8.284;2023-09-19T11:24:39;100321.31;;;23.22;59.38
163;BME280;3946;48.958;8.284;2023-09-19T11:27:25;100331.88;;;23.22;60.08
163;BME280;3946;48.958;8.284;2023-09-19T11:30:27;100323.06;;;23.30;59.27
163;BME280;3946;48.958;8.284;2023-09-19T11:33:17;100309.66;;;23.46;58.25
163;BME280;3946;48.958;8.284;2023-09-19T11:36:06;100313.78;;;22.96;58.36
163;BME280;3946;48.958;8.284;2023-09-19T11:38:58;100306.19;;;23.16;58.22
163;BME280;3946;48.958;8.284;2023-09-19T11:41:45;100323.88;;;22.47;60.51
163;BME280;3946;48.958;8.284;2023-09-19T11:44:34;100316.56;;;23.03;59.36
163;BME280;3946;48.958;8.284;2023-09-19T11:47:25;100300.03;;;23.01;59.20
163;BME280;3946;48.958;8.284;2023-09-19T11:50:10;100298.16;;;23.24;59.35
163;BME280;3946;48.958;8.284;2023-09-19T11:52:57;100299.16;;;23.38;59.26
163;BME280;3946;48.958;8.284;2023-09-19T11:55:42;100280.31;;;23.56;57.37
163;BME280;3946;48.958;8.284;2023-09-19T11:58:27;100257.78;;;23.30;55.92
163;BME280;3946;48.958;8.284;2023-09-19T12:01:13;100274.19;;;23.41;57.36
163;BME280;3946;48.958;8.284;2023-09-19T12:04:04;100288.75;;;23.22;58.60
163;BME280;3946;48.958;8.284;2023-09-19T12:06:56;100299.56;;;22.75;59.66
163;BME280;3946;48.958;8.284;2023-09-19T12:09:43;100280.53;;;22.87;58.88
163;BME280;3946;48.958;8.284;2023-09-19T12:12:31;100259.59;;;23.30;57.18
163;BME280;3946;48.958;8.284;2023-09-19T12:15:22;100256.13;;;23.44;56.54
163;BME280;3946;48.958;8.284;2023-09-19T12:18:08;100271.22;;;23.06;57.79
163;BME280;3946;48.958;8.284;2023-09-19T12:20:53;100277.00;;;23.10;58.35
163;BME280;3946;48.958;8.284;2023-09-19T12:23:39;100271.78;;;22.87;57.68
163;BME280;3946;48.958;8.284;2023-09-19T12:26:27;100267.84;;;22.75;58.53
163;BME280;3946;48.958;8.284;2023-09-19T12:29:13;100259.66;;;23.07;57.87
163;BME280;3946;48.958;8.284;2023-09-19T12:32:01;100253.50;;;23.59;57.10
163;BME280;3946;48.958;8.284;2023-09-19T12:34:52;100231.94;;;23.77;55.50
163;BME280;3946;48.958;8.284;2023-09-19T12:37:42;100224.28;;;23.82;55.76
163;BME280;3946;48.958;8.284;2023-09-19T12:40:32;100221.47;;;23.68;55.41
163;BME280;3946;48.958;8.284;2023-09-19T12:43:21;100226.16;;;23.52;56.02
163;BME280;3946;48.958;8.284;2023-09-19T12:46:07;100226.88;;;23.96;55.95
163;BME280;3946;48.958;8.284;2023-09-19T12:51:54;100205.09;;;24.37;55.19
163;BME280;3946;48.958;8.284;2023-09-19T12:54:42;100201.38;;;24.31;54.81
163;BME280;3946;48.958;8.284;2023-09-19T12:57:29;100214.28;;;23.98;55.02
163;BME280;3946;48.958;8.284;2023-09-19T13:00:17;100217.19;;;23.89;55.46
163;BME280;3946;48.958;8.284;2023-09-19T13:03:15;100217.41;;;24.08;55.57
163;BME280;3946;48.958;8.284;2023-09-19T13:06:02;100212.25;;;24.22;55.94
163;BME280;3946;48.958;8.284;2023-09-19T13:08:48;100196.13;;;24.38;55.07
163;BME280;3946;48.958;8.284;2023-09-19T13:11:38;100180.88;;;24.68;54.65
163;BME280;3946;48.958;8.284;2023-09-19T13:14:24;100184.16;;;24.98;53.14
163;BME280;3946;48.958;8.284;2023-09-19T13:17:12;100195.69;;;24.84;53.97
163;BME280;3946;48.958;8.284;2023-09-19T13:20:00;100177.31;;;24.54;52.84
163;BME280;3946;48.958;8.284;2023-09-19T13:22:47;100189.63;;;24.40;54.10
163;BME280;3946;48.958;8.284;2023-09-19T13:25:37;100199.94;;;24.29;55.18
163;BME280;3946;48.958;8.284;2023-09-19T13:28:23;100179.75;;;24.56;54.21
163;BME280;3946;48.958;8.284;2023-09-19T13:31:09;100167.53;;;24.83;52.37
163;BME280;3946;48.958;8.284;2023-09-19T13:33:55;100174.91;;;24.59;53.51
163;BME280;3946;48.958;8.284;2023-09-19T13:36:41;100179.56;;;24.57;53.63
163;BME280;3946;48.958;8.284;2023-09-19T13:39:26;100190.66;;;24.18;53.71
163;BME280;3946;48.958;8.284;2023-09-19T13:42:11;100201.94;;;24.48;54.87
163;BME280;3946;48.958;8.284;2023-09-19T13:44:56;100181.44;;;24.14;53.09
163;BME280;3946;48.958;8.284;2023-09-19T13:47:41;100195.06;;;23.75;54.65
163;BME280;3946;48.958;8.284;2023-09-19T13:50:28;100181.06;;;23.96;54.24
163;BME280;3946;48.958;8.284;2023-09-19T13:53:15;100179.56;;;24.29;53.46
163;BME280;3946;48.958;8.284;2023-09-19T13:56:00;100203.34;;;24.08;55.11
163;BME280;3946;48.958;8.284;2023-09-19T13:58:45;100193.16;;;24.05;54.54
163;BME280;3946;48.958;8.284;2023-09-19T14:01:30;100170.84;;;24.35;51.69
163;BME280;3946;48.958;8.284;2023-09-19T14:04:15;100197.47;;;24.49;54.84
163;BME280;3946;48.958;8.284;2023-09-19T14:07:01;100171.91;;;24.69;51.68
163;BME280;3946;48.958;8.284;2023-09-19T14:09:47;100174.25;;;24.85;52.56
163;BME280;3946;48.958;8.284;2023-09-19T14:12:32;100168.78;;;24.59;52.31
163;BME280;3946;48.958;8.284;2023-09-19T14:15:18;100174.06;;;24.31;52.70
163;BME280;3946;48.958;8.284;2023-09-19T14:18:03;100179.31;;;24.24;53.92
163;BME280;3946;48.958;8.284;2023-09-19T14:20:49;100188.97;;;24.32;53.85
163;BME280;3946;48.958;8.284;2023-09-19T14:23:38;100201.50;;;24.02;54.46
163;BME280;3946;48.958;8.284;2023-09-19T14:26:23;100192.09;;;23.99;54.50
163;BME280;3946;48.958;8.284;2023-09-19T14:29:10;100176.78;;;24.16;54.22
163;BME280;3946;48.958;8.284;2023-09-19T14:31:56;100178.66;;;24.01;54.49
163;BME280;3946;48.958;8.284;2023-09-19T14:34:42;100170.22;;;24.12;53.14
163;BME280;3946;48.958;8.284;2023-09-19T14:37:28;100170.22;;;24.12;53.39
163;BME280;3946;48.958;8.284;2023-09-19T14:40:16;100167.94;;;24.09;53.22
163;BME280;3946;48.958;8.284;2023-09-19T14:43:01;100171.22;;;23.39;53.68
163;BME280;3946;48.958;8.284;2023-09-19T14:45:47;100168.13;;;23.50;54.41
163;BME280;3946;48.958;8.284;2023-09-19T14:48:32;100194.84;;;23.26;57.39
163;BME280;3946;48.958;8.284;2023-09-19T14:51:18;100188.38;;;23.28;56.01
163;BME280;3946;48.958;8.284;2023-09-19T14:54:03;100182.28;;;23.13;55.77
163;BME280;3946;48.958;8.284;2023-09-19T14:56:50;100201.50;;;22.78;58.42
163;BME280;3946;48.958;8.284;2023-09-19T14:59:47;100183.25;;;22.68;56.38
163;BME280;3946;48.958;8.284;2023-09-19T15:02:33;100189.00;;;22.72;57.56
163;BME280;3946;48.958;8.284;2023-09-19T15:05:18;100194.56;;;22.77;58.05
163;BME280;3946;48.958;8.284;2023-09-19T15:08:03;100181.38;;;22.91;57.63
163;BME280;3946;48.958;8.284;2023-09-19T15:10:49;100193.31;;;23.02;58.98
163;BME280;3946;48.958;8.284;2023-09-19T15:13:38;100186.41;;;23.01;57.39